This is the latest recevied weather packets stored in our database for station/object K4VEB. If no packets are shown the sender has not sent any weather packets the latest 10 day(s).
| Time | Temp. | Humidity | Pressure | Rain* | Wind** | Luminosity | Snow |
|---|---|---|---|---|---|---|---|
| 1778012577 | 29.44° C | 42% | 1014.2 hPa | 0 mm | - | 200 W/m² | - |
| 1778012273 | 28.89° C | 43% | 1014.4 hPa | 0 mm | - | 369 W/m² | - |
| 1778011971 | 28.89° C | 43% | 1014.3 hPa | 0 mm | - | 201 W/m² | - |
| 1778011366 | 29.44° C | 42% | 1014.6 hPa | 0 mm | - | 220 W/m² | - |
| 1778011061 | 29.44° C | 42% | 1014.7 hPa | 0 mm | - | 220 W/m² | - |
| 1778010759 | 30° C | 41% | 1014.7 hPa | 0 mm | - | 310 W/m² | - |
| 1778010456 | 30.56° C | 41% | 1014.7 hPa | 0 mm | - | 630 W/m² | - |
| 1778009848 | 31.11° C | 39% | 1014.8 hPa | 0 mm | - | 281 W/m² | - |
| 1778009546 | 31.11° C | 39% | 1014.8 hPa | 0 mm | - | 281 W/m² | - |
| 1778007733 | 31.11° C | 40% | 1014.9 hPa | 0 mm | - | 751 W/m² | - |
| 1778007430 | 31.11° C | 40% | 1015.2 hPa | 0 mm | - | 751 W/m² | - |
| 1778006823 | 30.56° C | 39% | 1015.5 hPa | 0 mm | - | 786 W/m² | - |
| 1778006521 | 30.56° C | 39% | 1015.4 hPa | 0 mm | - | 786 W/m² | - |
| 1778006217 | 30.56° C | 40% | 1015.5 hPa | 0 mm | - | 381 W/m² | - |
| 1778005915 | 31.11° C | 37% | 1015.6 hPa | 0 mm | - | 282 W/m² | - |
| 1778005610 | 30.56° C | 40% | 1015.6 hPa | 0 mm | - | 900 W/m² | - |
| 1778005308 | 30° C | 40% | 1015.6 hPa | 0 mm | - | 952 W/m² | - |
| 1778005004 | 31.11° C | 38% | 1015.6 hPa | 0 mm | - | 957 W/m² | - |
| 1778004702 | 30° C | 41% | 1015.7 hPa | 0 mm | - | 962 W/m² | - |
| 1778004398 | 27.78° C | 48% | 1015.9 hPa | 0 mm | - | 989 W/m² | - |
| 1778004095 | 27.78° C | 49% | 1015.8 hPa | 0 mm | - | 231 W/m² | - |
| 1778003791 | 28.33° C | 47% | 1015.8 hPa | 0 mm | - | 155 W/m² | - |
| 1778003488 | 28.89° C | 45% | 1015.9 hPa | 0 mm | - | 161 W/m² | - |
| 1778003184 | 27.78° C | 48% | 1015.9 hPa | 0 mm | - | 651 W/m² | - |
| 1778002881 | 27.78° C | 48% | 1016.1 hPa | 0 mm | - | 200 W/m² | - |
* Rain latest hour (hover to see other rain measurements)
** Current wind speed in m/s (hover to see current wind gust speed)